createdAt,value
2017-11-16T00:00:57.050Z,973.3
2017-11-16T00:01:57.041Z,973.28
2017-11-16T00:02:57.028Z,973.28
2017-11-16T00:03:57.018Z,973.27
2017-11-16T00:04:57.008Z,973.26
2017-11-16T00:05:56.998Z,973.26
2017-11-16T00:06:56.987Z,973.27
2017-11-16T00:07:56.975Z,973.27
2017-11-16T00:08:56.965Z,973.28
2017-11-16T00:09:56.955Z,973.28
2017-11-16T00:10:56.945Z,973.33
2017-11-16T00:11:56.932Z,973.33
2017-11-16T00:12:56.922Z,973.37
2017-11-16T00:13:56.915Z,973.34
2017-11-16T00:14:56.901Z,973.36
2017-11-16T00:15:56.891Z,973.36
2017-11-16T00:16:56.880Z,973.41
2017-11-16T00:17:56.871Z,973.37
2017-11-16T00:18:56.859Z,973.37
2017-11-16T00:19:56.847Z,973.36
2017-11-16T00:20:56.838Z,973.39
2017-11-16T00:21:56.825Z,973.36
2017-11-16T00:22:56.815Z,973.35
2017-11-16T00:23:56.805Z,973.36
2017-11-16T00:24:56.794Z,973.36
2017-11-16T00:25:56.783Z,973.34
2017-11-16T00:26:56.873Z,973.33
2017-11-16T00:27:56.762Z,973.33
2017-11-16T00:28:56.752Z,973.28
2017-11-16T00:29:56.740Z,973.27
2017-11-16T00:30:56.831Z,973.27
2017-11-16T00:31:56.720Z,973.22
2017-11-16T00:32:56.810Z,973.24
2017-11-16T00:33:56.701Z,973.26
2017-11-16T00:34:56.688Z,973.22
2017-11-16T00:35:56.678Z,973.24
2017-11-16T00:36:56.667Z,973.23
2017-11-16T00:37:56.656Z,973.21
2017-11-16T00:38:56.644Z,973.24
2017-11-16T00:39:56.634Z,973.21
2017-11-16T00:40:56.622Z,973.26
2017-11-16T00:41:56.613Z,973.23
2017-11-16T00:42:56.602Z,973.22
2017-11-16T00:43:56.592Z,973.25
2017-11-16T00:44:56.581Z,973.26
2017-11-16T00:45:56.570Z,973.25
2017-11-16T00:46:56.558Z,973.26
2017-11-16T00:47:56.547Z,973.26
2017-11-16T00:48:56.537Z,973.24
2017-11-16T00:49:56.627Z,973.27
2017-11-16T00:50:56.518Z,973.28
2017-11-16T00:51:56.507Z,973.29
2017-11-16T00:52:56.495Z,973.27
2017-11-16T00:53:56.485Z,973.28
2017-11-16T00:54:56.474Z,973.29
2017-11-16T00:55:56.462Z,973.34
2017-11-16T00:56:56.453Z,973.32
2017-11-16T00:57:56.442Z,973.31
2017-11-16T00:58:56.432Z,973.3
2017-11-16T00:59:56.419Z,973.32
2017-11-16T01:00:56.410Z,973.34
2017-11-16T01:01:56.400Z,973.33
2017-11-16T01:02:56.388Z,973.36
2017-11-16T01:03:56.378Z,973.31
2017-11-16T01:04:56.367Z,973.39
2017-11-16T01:05:56.365Z,973.34
2017-11-16T01:06:56.346Z,973.36
2017-11-16T01:07:56.335Z,973.35
2017-11-16T01:08:56.326Z,973.34
2017-11-16T01:09:56.313Z,973.34
2017-11-16T01:10:56.303Z,973.38
2017-11-16T01:11:56.294Z,973.34
2017-11-16T01:12:56.283Z,973.32
2017-11-16T01:13:56.270Z,973.34
2017-11-16T01:14:56.262Z,973.34
2017-11-16T01:15:56.251Z,973.34
2017-11-16T01:16:56.243Z,973.37
2017-11-16T01:17:56.230Z,973.37
2017-11-16T01:18:56.219Z,973.37
2017-11-16T01:19:56.208Z,973.43
2017-11-16T01:20:56.198Z,973.45
2017-11-16T01:21:56.189Z,973.38
2017-11-16T01:22:56.177Z,973.4
2017-11-16T01:23:56.168Z,973.42
2017-11-16T01:24:56.155Z,973.42
2017-11-16T01:25:56.144Z,973.35
2017-11-16T01:26:56.134Z,973.37
2017-11-16T01:27:56.123Z,973.34
2017-11-16T01:28:56.113Z,973.31
2017-11-16T01:29:56.103Z,973.33
2017-11-16T01:30:56.092Z,973.32
2017-11-16T01:31:56.080Z,973.3
2017-11-16T01:32:56.070Z,973.33
2017-11-16T01:33:56.060Z,973.27
2017-11-16T01:34:56.048Z,973.31
2017-11-16T01:35:56.037Z,973.26
2017-11-16T01:36:56.027Z,973.31
2017-11-16T01:37:56.017Z,973.29
2017-11-16T01:38:56.010Z,973.31
2017-11-16T01:39:55.994Z,973.28
2017-11-16T01:40:55.986Z,973.26
2017-11-16T01:41:55.975Z,973.26
2017-11-16T01:42:55.972Z,973.31
2017-11-16T01:43:55.953Z,973.25
2017-11-16T01:44:55.947Z,973.21
2017-11-16T01:45:55.931Z,973.19
2017-11-16T01:46:55.921Z,973.17
2017-11-16T01:47:55.909Z,973.14
2017-11-16T01:48:55.907Z,973.1
2017-11-16T01:49:55.889Z,973.13
2017-11-16T01:50:55.876Z,973.13
2017-11-16T01:51:55.876Z,973.07
2017-11-16T01:52:55.856Z,973.09
2017-11-16T01:53:55.845Z,973.1
2017-11-16T01:54:55.836Z,973.04
2017-11-16T01:55:55.824Z,972.98
2017-11-16T01:56:55.816Z,972.98
2017-11-16T01:57:55.804Z,972.98
2017-11-16T01:58:55.794Z,972.94
2017-11-16T01:59:55.783Z,972.93
2017-11-16T02:00:55.771Z,972.92
2017-11-16T02:01:55.760Z,972.95
2017-11-16T02:02:55.751Z,972.96
2017-11-16T02:03:55.741Z,972.97
2017-11-16T02:04:55.729Z,972.98
2017-11-16T02:05:55.719Z,972.99
2017-11-16T02:06:55.717Z,972.96
2017-11-16T02:07:55.698Z,972.96
2017-11-16T02:08:55.687Z,973
2017-11-16T02:09:55.676Z,972.97
2017-11-16T02:10:55.671Z,972.97
2017-11-16T02:11:55.754Z,972.94
2017-11-16T02:12:55.644Z,972.95
2017-11-16T02:13:55.634Z,972.97
2017-11-16T02:14:55.623Z,972.92
2017-11-16T02:15:55.610Z,972.94
2017-11-16T02:16:55.604Z,972.95
2017-11-16T02:17:55.690Z,972.93
2017-11-16T02:18:55.579Z,972.94
2017-11-16T02:19:55.580Z,972.95
2017-11-16T02:20:55.559Z,972.92
2017-11-16T02:21:55.549Z,972.94
2017-11-16T02:22:55.537Z,972.94
2017-11-16T02:23:55.525Z,972.95
2017-11-16T02:24:55.623Z,972.92
2017-11-16T02:25:55.506Z,972.88
2017-11-16T02:26:55.494Z,972.89
2017-11-16T02:27:55.484Z,972.87
2017-11-16T02:28:55.474Z,972.87
2017-11-16T02:29:55.464Z,972.86
2017-11-16T02:30:55.453Z,972.91
2017-11-16T02:31:55.442Z,972.83
2017-11-16T02:32:55.432Z,972.85
2017-11-16T02:33:55.419Z,972.83
2017-11-16T02:34:55.410Z,972.8
2017-11-16T02:35:55.401Z,972.82
2017-11-16T02:36:55.388Z,972.82
2017-11-16T02:37:55.378Z,972.81
2017-11-16T02:38:55.368Z,972.81
2017-11-16T02:39:55.359Z,972.82
2017-11-16T02:40:55.345Z,972.81
2017-11-16T02:41:55.335Z,972.81
2017-11-16T02:42:55.425Z,972.78
2017-11-16T02:43:55.315Z,972.82
2017-11-16T02:44:55.303Z,972.79
2017-11-16T02:45:55.293Z,972.8
2017-11-16T02:46:55.281Z,972.81
2017-11-16T02:47:55.275Z,972.8
2017-11-16T02:48:55.260Z,972.79
2017-11-16T02:49:55.251Z,972.85
2017-11-16T02:50:55.240Z,972.8
2017-11-16T02:51:55.232Z,972.75
2017-11-16T02:52:55.225Z,972.82
2017-11-16T02:53:55.209Z,972.81
2017-11-16T02:54:55.198Z,972.78
2017-11-16T02:55:55.188Z,972.82
2017-11-16T02:56:55.176Z,972.83
2017-11-16T02:57:55.166Z,972.84
2017-11-16T02:58:55.156Z,972.8
2017-11-16T02:59:55.145Z,972.83
2017-11-16T03:00:55.134Z,972.83
2017-11-16T03:01:55.125Z,972.85
2017-11-16T03:02:55.111Z,972.91
2017-11-16T03:03:55.101Z,972.87
2017-11-16T03:04:55.192Z,972.84
2017-11-16T03:05:55.082Z,972.83
2017-11-16T03:06:55.068Z,972.83
2017-11-16T03:07:55.069Z,972.83
2017-11-16T03:08:55.049Z,972.82
2017-11-16T03:09:55.039Z,972.78
2017-11-16T03:10:55.028Z,972.75
2017-11-16T03:11:55.017Z,972.79
2017-11-16T03:12:55.007Z,972.77
2017-11-16T03:13:54.994Z,972.73
2017-11-16T03:14:54.985Z,972.72
2017-11-16T03:15:54.974Z,972.71
2017-11-16T03:16:54.967Z,972.72
2017-11-16T03:17:54.954Z,972.76
2017-11-16T03:18:54.941Z,972.72
2017-11-16T03:19:54.943Z,972.74
2017-11-16T03:20:54.921Z,972.73
2017-11-16T03:21:54.910Z,972.77
2017-11-16T03:22:54.900Z,972.75
2017-11-16T03:23:54.888Z,972.77
2017-11-16T03:24:54.878Z,972.77
2017-11-16T03:25:54.868Z,972.78
2017-11-16T03:26:54.856Z,972.8
2017-11-16T03:27:54.847Z,972.79
2017-11-16T03:28:54.834Z,972.79
2017-11-16T03:29:54.824Z,972.82
2017-11-16T03:30:54.819Z,972.77
2017-11-16T03:31:54.805Z,972.78
2017-11-16T03:32:54.793Z,972.75
2017-11-16T03:33:54.783Z,972.77
2017-11-16T03:34:54.772Z,972.74
2017-11-16T03:35:54.761Z,972.76
2017-11-16T03:36:54.750Z,972.83
2017-11-16T03:37:54.740Z,972.77
2017-11-16T03:38:54.734Z,972.77
2017-11-16T03:39:54.720Z,972.79
2017-11-16T03:40:54.708Z,972.76
2017-11-16T03:41:54.697Z,972.77
2017-11-16T03:42:54.687Z,972.75
2017-11-16T03:43:54.677Z,972.76
2017-11-16T03:44:54.665Z,972.76
2017-11-16T03:45:54.654Z,972.71
2017-11-16T03:46:54.644Z,972.72
2017-11-16T03:47:54.633Z,972.71
2017-11-16T03:48:54.623Z,972.7
2017-11-16T03:49:54.612Z,972.71
2017-11-16T03:50:54.602Z,972.68
2017-11-16T03:51:54.591Z,972.7
2017-11-16T03:52:54.581Z,972.67
2017-11-16T03:53:54.569Z,972.68
2017-11-16T03:54:54.559Z,972.65
2017-11-16T03:55:54.554Z,972.64
2017-11-16T03:56:54.538Z,972.65
2017-11-16T03:57:54.527Z,972.66
2017-11-16T03:58:54.516Z,972.61
2017-11-16T03:59:54.506Z,972.59
2017-11-16T04:00:54.495Z,972.65
2017-11-16T04:01:54.485Z,972.6
2017-11-16T04:02:54.477Z,972.65
2017-11-16T04:03:54.464Z,972.62
2017-11-16T04:04:54.453Z,972.65
2017-11-16T04:05:54.446Z,972.63
2017-11-16T04:06:54.431Z,972.61
2017-11-16T04:07:54.420Z,972.64
2017-11-16T04:08:54.408Z,972.6
2017-11-16T04:09:54.400Z,972.63
2017-11-16T04:10:54.387Z,972.58
2017-11-16T04:11:54.378Z,972.62
2017-11-16T04:12:54.365Z,972.56
2017-11-16T04:13:54.357Z,972.6
2017-11-16T04:14:54.345Z,972.62
2017-11-16T04:15:54.335Z,972.62
2017-11-16T04:16:54.324Z,972.67
2017-11-16T04:17:54.314Z,972.65
2017-11-16T04:18:54.303Z,972.65
2017-11-16T04:19:54.292Z,972.66
2017-11-16T04:20:54.282Z,972.69
2017-11-16T04:21:54.271Z,972.66
2017-11-16T04:22:54.261Z,972.68
2017-11-16T04:23:54.250Z,972.69
2017-11-16T04:24:54.239Z,972.7
2017-11-16T04:25:54.230Z,972.7
2017-11-16T04:26:54.219Z,972.7
2017-11-16T04:27:54.209Z,972.72
2017-11-16T04:28:54.198Z,972.73
2017-11-16T04:29:54.186Z,972.79
2017-11-16T04:30:54.176Z,972.8
2017-11-16T04:31:54.265Z,972.76
2017-11-16T04:32:54.154Z,972.78
2017-11-16T04:33:54.145Z,972.82
2017-11-16T04:34:54.133Z,972.8
2017-11-16T04:35:54.123Z,972.78
2017-11-16T04:36:54.113Z,972.82
2017-11-16T04:37:54.103Z,972.83
2017-11-16T04:38:54.092Z,972.81
2017-11-16T04:39:54.080Z,972.82
2017-11-16T04:40:54.070Z,972.82
2017-11-16T04:41:54.059Z,972.82
2017-11-16T04:42:54.050Z,972.81
2017-11-16T04:43:54.038Z,972.82
2017-11-16T04:44:54.028Z,972.81
2017-11-16T04:45:54.016Z,972.77
2017-11-16T04:46:54.007Z,972.76
2017-11-16T04:47:53.994Z,972.72
2017-11-16T04:48:53.995Z,972.77
2017-11-16T04:49:53.974Z,972.71
2017-11-16T04:50:53.964Z,972.69
2017-11-16T04:51:53.953Z,972.72
2017-11-16T04:52:53.942Z,972.65
2017-11-16T04:53:53.931Z,972.65
2017-11-16T04:54:53.921Z,972.64
2017-11-16T04:55:53.918Z,972.59
2017-11-16T04:56:53.899Z,972.61
2017-11-16T04:57:53.889Z,972.59
2017-11-16T04:58:53.877Z,972.55
2017-11-16T04:59:53.867Z,972.57
2017-11-16T05:00:53.857Z,972.54
2017-11-16T05:01:53.847Z,972.55
2017-11-16T05:02:53.837Z,972.57
2017-11-16T05:03:53.823Z,972.58
2017-11-16T05:04:53.815Z,972.58
2017-11-16T05:05:53.802Z,972.6
2017-11-16T05:06:53.793Z,972.62
2017-11-16T05:07:53.881Z,972.59
2017-11-16T05:08:53.771Z,972.62
2017-11-16T05:09:53.760Z,972.62
2017-11-16T05:10:53.750Z,972.61
2017-11-16T05:11:53.744Z,972.62
2017-11-16T05:12:53.830Z,972.61
2017-11-16T05:13:53.720Z,972.62
2017-11-16T05:14:53.708Z,972.62
2017-11-16T05:15:53.697Z,972.57
2017-11-16T05:16:53.686Z,972.62
2017-11-16T05:17:53.676Z,972.59
2017-11-16T05:18:53.665Z,972.62
2017-11-16T05:19:53.653Z,972.67
2017-11-16T05:20:53.644Z,972.62
2017-11-16T05:21:53.633Z,972.64
2017-11-16T05:22:53.622Z,972.64
2017-11-16T05:23:53.612Z,972.67
2017-11-16T05:24:53.603Z,972.62
2017-11-16T05:25:53.590Z,972.64
2017-11-16T05:26:53.582Z,972.67
2017-11-16T05:27:53.572Z,972.66
2017-11-16T05:28:53.560Z,972.68
2017-11-16T05:29:53.547Z,972.73
2017-11-16T05:30:53.539Z,972.73
2017-11-16T05:31:53.527Z,972.76
2017-11-16T05:32:53.516Z,972.77
2017-11-16T05:33:53.505Z,972.79
2017-11-16T05:34:53.494Z,972.82
2017-11-16T05:35:53.486Z,972.82
2017-11-16T05:36:53.478Z,972.84
2017-11-16T05:37:53.470Z,972.85
2017-11-16T05:38:53.465Z,972.86
2017-11-16T05:39:53.444Z,972.89
2017-11-16T05:40:53.432Z,972.89
2017-11-16T05:41:53.422Z,972.86
2017-11-16T05:42:53.421Z,972.88
2017-11-16T05:43:53.401Z,972.9
2017-11-16T05:44:53.390Z,972.91
2017-11-16T05:45:53.379Z,972.93
2017-11-16T05:46:53.370Z,972.9
2017-11-16T05:47:53.358Z,972.94
2017-11-16T05:48:53.348Z,972.96
2017-11-16T05:49:53.338Z,972.93
2017-11-16T05:50:53.326Z,972.97
2017-11-16T05:51:53.316Z,972.98
2017-11-16T05:52:53.308Z,972.96
2017-11-16T05:53:53.293Z,972.98
2017-11-16T05:54:53.283Z,972.95
2017-11-16T05:55:53.271Z,972.95
2017-11-16T05:56:53.263Z,972.96
2017-11-16T05:57:53.259Z,972.96
2017-11-16T05:58:53.241Z,972.97
2017-11-16T05:59:53.230Z,972.98
2017-11-16T06:00:53.221Z,972.96
2017-11-16T06:01:53.213Z,972.94
2017-11-16T06:02:53.200Z,972.95
2017-11-16T06:03:53.189Z,972.95
2017-11-16T06:04:53.180Z,972.96
2017-11-16T06:05:53.172Z,972.93
2017-11-16T06:06:53.158Z,972.99
2017-11-16T06:07:53.150Z,972.97
2017-11-16T06:08:53.139Z,972.93
2017-11-16T06:09:53.125Z,972.92
2017-11-16T06:10:53.115Z,972.9
2017-11-16T06:11:53.106Z,972.94
2017-11-16T06:12:53.094Z,972.97
2017-11-16T06:13:53.083Z,972.95
2017-11-16T06:14:53.073Z,972.95
2017-11-16T06:15:53.163Z,973.02
2017-11-16T06:16:53.051Z,973.01
2017-11-16T06:17:53.042Z,973.03
2017-11-16T06:18:53.031Z,973.07
2017-11-16T06:19:53.021Z,973.04
2017-11-16T06:20:53.016Z,973
2017-11-16T06:21:52.999Z,973.02
2017-11-16T06:22:52.989Z,973.03
2017-11-16T06:23:52.977Z,973.04
2017-11-16T06:24:52.967Z,973.01
2017-11-16T06:25:52.956Z,973.02
2017-11-16T06:26:52.945Z,973.03
2017-11-16T06:27:52.935Z,973.02
2017-11-16T06:28:52.926Z,973.07
2017-11-16T06:29:52.914Z,973.07
2017-11-16T06:30:52.903Z,973.03
2017-11-16T06:31:52.892Z,973.05
2017-11-16T06:32:52.883Z,973.07
2017-11-16T06:33:52.971Z,973.11
2017-11-16T06:34:52.860Z,973.09
2017-11-16T06:35:52.850Z,973.08
2017-11-16T06:36:52.844Z,973.05
2017-11-16T06:37:52.828Z,973.06
2017-11-16T06:38:52.826Z,973.09
2017-11-16T06:39:52.807Z,973.08
2017-11-16T06:40:52.796Z,973.05
2017-11-16T06:41:52.795Z,973.08
2017-11-16T06:42:52.781Z,973.12
2017-11-16T06:43:52.766Z,973.11
2017-11-16T06:44:52.755Z,973.13
2017-11-16T06:45:52.743Z,973.11
2017-11-16T06:46:52.733Z,973.17
2017-11-16T06:47:52.823Z,973.14
2017-11-16T06:48:52.712Z,973.16
2017-11-16T06:49:52.701Z,973.16
2017-11-16T06:50:52.689Z,973.16
2017-11-16T06:51:52.681Z,973.2
2017-11-16T06:52:52.669Z,973.21
2017-11-16T06:53:52.658Z,973.19
2017-11-16T06:54:52.656Z,973.23
2017-11-16T06:55:52.637Z,973.21
2017-11-16T06:56:52.627Z,973.19
2017-11-16T06:57:52.614Z,973.2
2017-11-16T06:58:52.606Z,973.21
2017-11-16T06:59:52.594Z,973.2
2017-11-16T07:00:52.584Z,973.24
2017-11-16T07:01:52.573Z,973.21
2017-11-16T07:02:52.576Z,973.19
2017-11-16T07:03:52.552Z,973.21
2017-11-16T07:04:52.541Z,973.21
2017-11-16T07:05:52.530Z,973.25
2017-11-16T07:06:52.521Z,973.25
2017-11-16T07:07:52.509Z,973.22
2017-11-16T07:08:52.498Z,973.25
2017-11-16T07:09:52.489Z,973.29
2017-11-16T07:10:52.481Z,973.24
2017-11-16T07:11:52.468Z,973.29
2017-11-16T07:12:52.458Z,973.27
2017-11-16T07:13:52.446Z,973.27
2017-11-16T07:14:52.435Z,973.28
2017-11-16T07:15:52.425Z,973.28
2017-11-16T07:16:52.414Z,973.31
2017-11-16T07:17:52.404Z,973.28
2017-11-16T07:18:52.391Z,973.26
2017-11-16T07:19:52.383Z,973.27
2017-11-16T07:20:52.372Z,973.28
2017-11-16T07:21:52.361Z,973.3
2017-11-16T07:22:52.351Z,973.31
2017-11-16T07:23:52.340Z,973.27
2017-11-16T07:24:52.331Z,973.26
2017-11-16T07:25:52.317Z,973.24
2017-11-16T07:26:52.307Z,973.24
2017-11-16T07:27:52.297Z,973.2
2017-11-16T07:28:52.295Z,973.23
2017-11-16T07:29:52.275Z,973.19
2017-11-16T07:30:52.265Z,973.19
2017-11-16T07:31:52.256Z,973.14
2017-11-16T07:32:52.243Z,973.17
2017-11-16T07:33:52.237Z,973.16
2017-11-16T07:34:52.224Z,973.16
2017-11-16T07:35:52.211Z,973.18
2017-11-16T07:36:52.201Z,973.23
2017-11-16T07:37:52.191Z,973.23
2017-11-16T07:38:52.181Z,973.27
2017-11-16T07:39:52.169Z,973.29
2017-11-16T07:40:52.160Z,973.32
2017-11-16T07:41:52.148Z,973.31
2017-11-16T07:42:52.137Z,973.37
2017-11-16T07:43:52.129Z,973.37
2017-11-16T07:44:52.118Z,973.34
2017-11-16T07:45:52.104Z,973.35
2017-11-16T07:46:52.096Z,973.33
2017-11-16T07:47:52.084Z,973.36
2017-11-16T07:48:52.073Z,973.36
2017-11-16T07:49:52.063Z,973.37
2017-11-16T07:50:52.052Z,973.39
2017-11-16T07:51:52.071Z,973.41
2017-11-16T07:52:52.031Z,973.44
2017-11-16T07:53:52.020Z,973.44
2017-11-16T07:54:52.010Z,973.46
2017-11-16T07:55:51.999Z,973.48
2017-11-16T07:56:51.993Z,973.54
2017-11-16T07:57:51.979Z,973.5
2017-11-16T07:58:51.968Z,973.5
2017-11-16T07:59:51.957Z,973.53
2017-11-16T08:00:51.946Z,973.54
2017-11-16T08:01:51.936Z,973.49
2017-11-16T08:02:51.924Z,973.48
2017-11-16T08:03:51.914Z,973.49
2017-11-16T08:04:52.003Z,973.5
2017-11-16T08:05:51.893Z,973.49
2017-11-16T08:06:51.882Z,973.49
2017-11-16T08:07:51.876Z,973.49
2017-11-16T08:08:51.862Z,973.5
2017-11-16T08:09:51.851Z,973.54
2017-11-16T08:10:51.846Z,973.53
2017-11-16T08:11:51.829Z,973.53
2017-11-16T08:12:51.819Z,973.5
2017-11-16T08:13:51.809Z,973.51
2017-11-16T08:14:51.797Z,973.5
2017-11-16T08:15:51.788Z,973.5
2017-11-16T08:16:51.778Z,973.5
2017-11-16T08:17:51.765Z,973.5
2017-11-16T08:18:51.756Z,973.5
2017-11-16T08:19:51.744Z,973.51
2017-11-16T08:20:51.735Z,973.51
2017-11-16T08:21:51.725Z,973.51
2017-11-16T08:22:51.712Z,973.51
2017-11-16T08:23:51.724Z,973.49
2017-11-16T08:24:51.690Z,973.45
2017-11-16T08:25:51.682Z,973.46
2017-11-16T08:26:51.676Z,973.47
2017-11-16T08:27:51.660Z,973.45
2017-11-16T08:28:51.657Z,973.44
2017-11-16T08:29:51.640Z,973.44
2017-11-16T08:30:51.630Z,973.45
2017-11-16T08:31:51.716Z,973.47
2017-11-16T08:32:51.607Z,973.51
2017-11-16T08:33:51.598Z,973.53
2017-11-16T08:34:51.591Z,973.49
2017-11-16T08:35:51.575Z,973.49
2017-11-16T08:36:51.566Z,973.52
2017-11-16T08:37:51.554Z,973.5
2017-11-16T08:38:51.545Z,973.51
2017-11-16T08:39:51.532Z,973.5
2017-11-16T08:40:51.522Z,973.53
2017-11-16T08:41:51.513Z,973.54
2017-11-16T08:42:51.502Z,973.52
2017-11-16T08:43:51.492Z,973.54
2017-11-16T08:44:51.480Z,973.52
2017-11-16T08:45:51.470Z,973.49
2017-11-16T08:46:51.459Z,973.5
2017-11-16T08:47:51.449Z,973.48
2017-11-16T08:48:51.439Z,973.45
2017-11-16T08:49:51.427Z,973.54
2017-11-16T08:50:51.421Z,973.53
2017-11-16T08:51:51.407Z,973.52
2017-11-16T08:52:51.395Z,973.54
2017-11-16T08:53:51.385Z,973.53
2017-11-16T08:54:51.376Z,973.58
2017-11-16T08:55:51.365Z,973.55
2017-11-16T08:56:51.454Z,973.56
2017-11-16T08:57:51.343Z,973.61
2017-11-16T08:58:51.339Z,973.66
2017-11-16T08:59:51.327Z,973.66
2017-11-16T09:00:51.310Z,973.63
2017-11-16T09:01:51.299Z,973.68
2017-11-16T09:02:51.289Z,973.66
2017-11-16T09:03:51.280Z,973.69
2017-11-16T09:04:51.269Z,973.68
2017-11-16T09:05:51.259Z,973.71
2017-11-16T09:06:51.248Z,973.67
2017-11-16T09:07:51.337Z,973.68
2017-11-16T09:08:51.225Z,973.67
2017-11-16T09:09:51.216Z,973.64
2017-11-16T09:10:51.206Z,973.66
2017-11-16T09:11:51.196Z,973.64
2017-11-16T09:12:51.185Z,973.64
2017-11-16T09:13:51.173Z,973.66
2017-11-16T09:14:51.165Z,973.64
2017-11-16T09:15:51.154Z,973.67
2017-11-16T09:16:51.145Z,973.63
2017-11-16T09:17:51.130Z,973.65
2017-11-16T09:18:51.122Z,973.68
2017-11-16T09:19:51.110Z,973.65
2017-11-16T09:20:51.107Z,973.69
2017-11-16T09:21:51.091Z,973.74
2017-11-16T09:22:51.077Z,973.71
2017-11-16T09:23:51.068Z,973.71
2017-11-16T09:24:51.057Z,973.71
2017-11-16T09:25:51.047Z,973.72
2017-11-16T09:26:51.036Z,973.71
2017-11-16T09:27:51.028Z,973.76
2017-11-16T09:28:51.018Z,973.75
2017-11-16T09:29:51.003Z,973.76
2017-11-16T09:30:50.992Z,973.71
2017-11-16T09:31:51.003Z,973.72
2017-11-16T09:32:50.972Z,973.73
2017-11-16T09:33:50.960Z,973.74
2017-11-16T09:34:50.956Z,973.73
2017-11-16T09:35:50.942Z,973.74
2017-11-16T09:36:50.963Z,973.72
2017-11-16T09:37:51.018Z,973.76
2017-11-16T09:38:50.908Z,973.73
2017-11-16T09:39:50.897Z,973.73
2017-11-16T09:40:50.888Z,973.69
2017-11-16T09:41:50.876Z,973.71
2017-11-16T09:42:50.865Z,973.71
2017-11-16T09:43:50.858Z,973.72
2017-11-16T09:44:50.843Z,973.68
2017-11-16T09:45:50.833Z,973.72
2017-11-16T09:46:50.823Z,973.7
2017-11-16T09:47:50.812Z,973.73
2017-11-16T09:48:50.801Z,973.7
2017-11-16T09:49:50.819Z,973.7
2017-11-16T09:50:50.781Z,973.75
2017-11-16T09:51:50.771Z,973.75
2017-11-16T09:52:50.768Z,973.75
2017-11-16T09:53:50.747Z,973.76
2017-11-16T09:54:50.737Z,973.73
2017-11-16T09:55:50.727Z,973.75
2017-11-16T09:56:50.716Z,973.76
2017-11-16T09:57:50.703Z,973.75
2017-11-16T09:58:50.700Z,973.72
2017-11-16T09:59:50.685Z,973.74
2017-11-16T10:00:50.671Z,973.75
2017-11-16T10:01:50.664Z,973.74
2017-11-16T10:02:50.652Z,973.74
2017-11-16T10:03:50.641Z,973.78
2017-11-16T10:04:50.631Z,973.78
2017-11-16T10:05:50.621Z,973.75
2017-11-16T10:06:50.608Z,973.77
2017-11-16T10:07:50.598Z,973.8
2017-11-16T10:08:50.588Z,973.83
2017-11-16T10:09:50.577Z,973.82
2017-11-16T10:10:50.576Z,973.84
2017-11-16T10:11:50.562Z,973.87
2017-11-16T10:12:50.545Z,973.84
2017-11-16T10:13:50.535Z,973.86
2017-11-16T10:14:50.524Z,973.83
2017-11-16T10:15:50.513Z,973.81
2017-11-16T10:16:50.504Z,973.81
2017-11-16T10:17:50.491Z,973.81
2017-11-16T10:18:50.487Z,973.82
2017-11-16T10:19:50.474Z,973.8
2017-11-16T10:20:50.460Z,973.78
2017-11-16T10:21:50.449Z,973.74
2017-11-16T10:22:50.439Z,973.74
2017-11-16T10:23:50.429Z,973.73
2017-11-16T10:24:50.417Z,973.68
2017-11-16T10:25:50.406Z,973.66
2017-11-16T10:26:50.397Z,973.72
2017-11-16T10:27:50.386Z,973.68
2017-11-16T10:28:50.376Z,973.66
2017-11-16T10:29:50.363Z,973.67
2017-11-16T10:30:50.353Z,973.66
2017-11-16T10:31:50.343Z,973.65
2017-11-16T10:32:50.363Z,973.62
2017-11-16T10:33:50.321Z,973.64
2017-11-16T10:34:50.312Z,973.63
2017-11-16T10:35:50.302Z,973.67
2017-11-16T10:36:50.293Z,973.61
2017-11-16T10:37:50.277Z,973.58
2017-11-16T10:38:50.268Z,973.55
2017-11-16T10:39:50.258Z,973.58
2017-11-16T10:40:50.248Z,973.61
2017-11-16T10:41:50.237Z,973.62
2017-11-16T10:42:50.227Z,973.63
2017-11-16T10:43:50.214Z,973.57
2017-11-16T10:44:50.205Z,973.6
2017-11-16T10:45:50.194Z,973.62
2017-11-16T10:46:50.285Z,973.58
2017-11-16T10:47:50.201Z,973.59
2017-11-16T10:48:50.164Z,973.61
2017-11-16T10:49:50.153Z,973.61
2017-11-16T10:50:50.141Z,973.6
2017-11-16T10:51:50.164Z,973.58
2017-11-16T10:52:50.121Z,973.6
2017-11-16T10:53:50.112Z,973.59
2017-11-16T10:54:50.100Z,973.59
2017-11-16T10:55:50.089Z,973.56
2017-11-16T10:56:50.079Z,973.59
2017-11-16T10:57:50.067Z,973.58
2017-11-16T10:58:50.063Z,973.55
2017-11-16T10:59:50.077Z,973.53
2017-11-16T11:00:50.037Z,973.55
2017-11-16T11:01:50.025Z,973.57
2017-11-16T11:02:50.014Z,973.53
2017-11-16T11:03:50.005Z,973.52
2017-11-16T11:04:49.993Z,973.55
2017-11-16T11:05:49.981Z,973.53
2017-11-16T11:06:49.979Z,973.51
2017-11-16T11:07:49.962Z,973.55
2017-11-16T11:08:49.950Z,973.49
2017-11-16T11:09:49.939Z,973.52
2017-11-16T11:10:49.928Z,973.49
2017-11-16T11:11:49.919Z,973.48
2017-11-16T11:12:49.908Z,973.49
2017-11-16T11:13:49.897Z,973.48
2017-11-16T11:14:49.895Z,973.48
2017-11-16T11:15:49.875Z,973.45
2017-11-16T11:16:49.869Z,973.42
2017-11-16T11:17:49.856Z,973.41
2017-11-16T11:18:49.847Z,973.41
2017-11-16T11:19:49.833Z,973.4
2017-11-16T11:20:49.822Z,973.4
2017-11-16T11:21:49.812Z,973.38
2017-11-16T11:22:49.802Z,973.39
2017-11-16T11:23:49.791Z,973.39
2017-11-16T11:24:49.781Z,973.37
2017-11-16T11:25:49.769Z,973.39
2017-11-16T11:26:49.760Z,973.36
2017-11-16T11:27:49.749Z,973.38
2017-11-16T11:28:49.838Z,973.38
2017-11-16T11:29:49.728Z,973.4
2017-11-16T11:30:49.717Z,973.34
2017-11-16T11:31:49.707Z,973.37
2017-11-16T11:32:49.696Z,973.39
2017-11-16T11:33:49.687Z,973.4
2017-11-16T11:34:49.674Z,973.38
2017-11-16T11:35:49.669Z,973.39
2017-11-16T11:36:49.654Z,973.42
2017-11-16T11:37:49.644Z,973.39
2017-11-16T11:38:49.636Z,973.48
2017-11-16T11:39:49.622Z,973.43
2017-11-16T11:40:49.620Z,973.44
2017-11-16T11:41:49.601Z,973.4
2017-11-16T11:42:49.591Z,973.41
2017-11-16T11:43:49.581Z,973.42
2017-11-16T11:44:49.569Z,973.39
2017-11-16T11:45:49.560Z,973.39
2017-11-16T11:46:49.548Z,973.39
2017-11-16T11:47:49.638Z,973.35
2017-11-16T11:48:49.527Z,973.39
2017-11-16T11:49:49.516Z,973.41
2017-11-16T11:50:49.506Z,973.39
2017-11-16T11:51:49.493Z,973.37
2017-11-16T11:52:49.487Z,973.38
2017-11-16T11:53:49.475Z,973.39
2017-11-16T11:54:49.463Z,973.41
2017-11-16T11:55:49.454Z,973.39
2017-11-16T11:56:49.450Z,973.39
2017-11-16T11:57:49.430Z,973.38
2017-11-16T11:58:49.422Z,973.35
2017-11-16T11:59:49.410Z,973.38
2017-11-16T12:00:49.403Z,973.34
2017-11-16T12:01:49.389Z,973.32
2017-11-16T12:02:49.379Z,973.31
2017-11-16T12:03:49.369Z,973.29
2017-11-16T12:04:49.358Z,973.29
2017-11-16T12:05:49.347Z,973.29
2017-11-16T12:06:49.337Z,973.3
2017-11-16T12:07:49.324Z,973.27
2017-11-16T12:08:49.315Z,973.27
2017-11-16T12:09:49.304Z,973.26
2017-11-16T12:10:49.302Z,973.26
2017-11-16T12:11:49.283Z,973.3
2017-11-16T12:12:49.273Z,973.27
2017-11-16T12:13:49.262Z,973.26
2017-11-16T12:14:49.254Z,973.28
2017-11-16T12:15:49.241Z,973.23
2017-11-16T12:16:49.231Z,973.21
2017-11-16T12:17:49.321Z,973.18
2017-11-16T12:18:49.210Z,973.21
2017-11-16T12:19:49.199Z,973.22
2017-11-16T12:20:49.189Z,973.2
2017-11-16T12:21:49.179Z,973.2
2017-11-16T12:22:49.167Z,973.21
2017-11-16T12:23:49.158Z,973.22
2017-11-16T12:24:49.148Z,973.2
2017-11-16T12:25:49.136Z,973.23
2017-11-16T12:26:49.124Z,973.21
2017-11-16T12:27:49.116Z,973.2
2017-11-16T12:28:49.104Z,973.19
2017-11-16T12:29:49.094Z,973.19
2017-11-16T12:30:49.090Z,973.23